createdAt,value
2022-12-05T00:00:16.335Z,37.8
2022-12-05T00:05:16.188Z,37.8
2022-12-05T00:10:16.236Z,37.8
2022-12-05T00:15:16.230Z,37.6
2022-12-05T00:20:16.334Z,37.4
2022-12-05T00:25:16.300Z,37.2
2022-12-05T00:30:16.409Z,36.8
2022-12-05T00:35:16.261Z,36.5
2022-12-05T00:40:16.233Z,35.9
2022-12-05T00:45:16.320Z,35.2
2022-12-05T00:50:16.260Z,34.8
2022-12-05T00:55:16.274Z,34.6
2022-12-05T01:00:16.381Z,34.4
2022-12-05T01:05:16.279Z,34.2
2022-12-05T01:10:16.408Z,34.1
2022-12-05T01:15:16.456Z,33.8
2022-12-05T01:20:16.535Z,33.5
2022-12-05T01:25:16.547Z,33.3
2022-12-05T01:30:16.405Z,33.1
2022-12-05T01:35:16.444Z,32.7
2022-12-05T01:40:16.403Z,32.6
2022-12-05T01:45:16.359Z,32.6
2022-12-05T01:50:16.439Z,32.6
2022-12-05T01:55:16.517Z,32.6
2022-12-05T02:00:16.578Z,32.5
2022-12-05T02:05:16.537Z,32.3
2022-12-05T02:10:16.729Z,32.1
2022-12-05T02:15:16.472Z,32.0
2022-12-05T02:20:16.471Z,32.0
2022-12-05T02:25:16.572Z,31.9
2022-12-05T02:30:16.588Z,31.8
2022-12-05T02:35:16.481Z,31.8
2022-12-05T02:40:16.504Z,31.6
2022-12-05T02:45:16.617Z,31.2
2022-12-05T02:50:16.569Z,31.2
2022-12-05T02:55:16.667Z,31.1
2022-12-05T03:00:16.618Z,31.3
2022-12-05T03:05:16.711Z,31.4
2022-12-05T03:10:16.650Z,31.2
2022-12-05T03:15:16.591Z,30.9
2022-12-05T03:20:16.653Z,30.9
2022-12-05T03:25:16.644Z,30.9
2022-12-05T03:30:16.685Z,31.0
2022-12-05T03:35:16.683Z,30.9
2022-12-05T03:40:16.704Z,30.9
2022-12-05T03:45:16.701Z,30.7
2022-12-05T03:50:16.686Z,30.6
2022-12-05T03:55:16.594Z,30.5
2022-12-05T04:00:16.963Z,30.6
2022-12-05T04:05:16.969Z,30.6
2022-12-05T04:10:16.883Z,30.6
2022-12-05T04:15:16.883Z,30.6
2022-12-05T04:20:16.774Z,30.5
2022-12-05T04:25:16.912Z,30.5
2022-12-05T04:30:16.842Z,30.4
2022-12-05T04:35:16.739Z,30.5
2022-12-05T04:40:16.840Z,30.4
2022-12-05T04:45:16.802Z,30.4
2022-12-05T04:50:16.801Z,30.1
2022-12-05T04:55:16.896Z,30.0
2022-12-05T05:00:15.957Z,30.1
2022-12-05T05:05:15.999Z,30.1
2022-12-05T05:10:15.897Z,30.1
2022-12-05T05:15:15.847Z,30.2
2022-12-05T05:20:19.852Z,30.1
2022-12-05T05:25:15.837Z,30.0
2022-12-05T05:30:15.912Z,30.0
2022-12-05T05:35:15.902Z,30.2
2022-12-05T05:40:16.096Z,30.1
2022-12-05T05:45:16.008Z,29.9
2022-12-05T05:50:21.116Z,29.9
2022-12-05T05:55:15.954Z,30.0
2022-12-05T06:00:15.967Z,30.0
2022-12-05T06:05:15.939Z,30.0
2022-12-05T06:10:16.003Z,30.0
2022-12-05T06:15:15.990Z,29.8
2022-12-05T06:20:16.043Z,29.7
2022-12-05T06:25:16.025Z,29.6
2022-12-05T06:30:16.179Z,29.6
2022-12-05T06:35:16.163Z,29.7
2022-12-05T06:40:16.072Z,29.7
2022-12-05T06:45:16.266Z,29.6
2022-12-05T06:50:16.063Z,29.6
2022-12-05T06:55:16.247Z,29.6
2022-12-05T07:00:16.149Z,29.7
2022-12-05T07:05:16.151Z,29.7
2022-12-05T07:10:16.094Z,29.6
2022-12-05T07:15:16.111Z,29.7
2022-12-05T07:20:16.264Z,29.6
2022-12-05T07:25:16.179Z,29.6
2022-12-05T07:30:16.170Z,29.6
2022-12-05T07:35:16.319Z,29.7
2022-12-05T07:40:16.251Z,29.7
2022-12-05T07:45:16.164Z,29.7
2022-12-05T07:50:16.235Z,29.7
2022-12-05T07:55:16.203Z,29.5
2022-12-05T08:00:16.284Z,29.3
2022-12-05T08:05:16.346Z,29.3
2022-12-05T08:10:16.227Z,29.7
2022-12-05T08:15:16.404Z,30.0
2022-12-05T08:20:16.360Z,30.3
2022-12-05T08:25:16.506Z,30.3
2022-12-05T08:30:16.564Z,30.2
2022-12-05T08:35:16.339Z,30.0
2022-12-05T08:40:16.442Z,30.0
2022-12-05T08:45:16.492Z,29.9
2022-12-05T08:50:16.360Z,29.8
2022-12-05T08:55:16.361Z,29.7
2022-12-05T09:00:16.415Z,29.6
2022-12-05T09:05:27.594Z,29.5
2022-12-05T09:10:16.355Z,29.4
2022-12-05T09:15:16.395Z,29.4
2022-12-05T09:20:16.498Z,29.4
2022-12-05T09:25:16.541Z,29.2
2022-12-05T09:30:16.575Z,29.2
2022-12-05T09:35:16.391Z,29.2
2022-12-05T09:40:16.525Z,29.1
2022-12-05T09:45:16.575Z,29.2
2022-12-05T09:50:16.615Z,29.2
2022-12-05T09:55:16.539Z,29.2
2022-12-05T10:00:16.643Z,29.3
2022-12-05T10:05:16.570Z,29.5
2022-12-05T10:10:20.201Z,29.7
2022-12-05T10:15:16.540Z,29.9
2022-12-05T10:20:16.810Z,29.9
2022-12-05T10:25:16.574Z,29.9
2022-12-05T10:30:16.539Z,29.8
2022-12-05T10:35:16.586Z,29.9
2022-12-05T10:40:16.587Z,29.9
2022-12-05T10:45:16.570Z,30.1
2022-12-05T10:50:16.658Z,30.3
2022-12-05T10:55:16.648Z,30.5
2022-12-05T11:00:16.708Z,30.6
2022-12-05T11:05:16.687Z,30.7
2022-12-05T11:10:16.682Z,30.6
2022-12-05T11:15:16.892Z,30.7
2022-12-05T11:20:16.683Z,30.9
2022-12-05T11:25:16.873Z,31.0
2022-12-05T11:30:16.779Z,31.1
2022-12-05T11:35:16.759Z,31.3
2022-12-05T11:40:16.761Z,31.5
2022-12-05T11:45:16.783Z,31.5
2022-12-05T11:50:16.796Z,31.5
2022-12-05T11:55:16.775Z,31.4
2022-12-05T12:00:16.860Z,31.7
2022-12-05T12:05:16.698Z,31.9
2022-12-05T12:10:17.054Z,31.9
2022-12-05T12:15:16.916Z,32.0
2022-12-05T12:20:16.916Z,32.1
2022-12-05T12:25:16.883Z,32.3
2022-12-05T12:30:16.866Z,32.6
2022-12-05T12:35:16.879Z,33.1
2022-12-05T12:40:16.875Z,33.5
2022-12-05T12:45:16.888Z,33.9
2022-12-05T12:50:16.915Z,34.2
2022-12-05T12:55:17.280Z,34.6
2022-12-05T13:00:17.056Z,34.9
2022-12-05T13:05:17.173Z,35.4
2022-12-05T13:10:16.931Z,36.0
2022-12-05T13:15:16.912Z,36.8
2022-12-05T13:20:17.098Z,37.4
2022-12-05T13:25:16.977Z,38.2
2022-12-05T13:30:17.013Z,39.1
2022-12-05T13:35:16.967Z,40.1
2022-12-05T13:40:17.174Z,40.7
2022-12-05T13:45:17.017Z,41.5
2022-12-05T13:50:17.020Z,42.0
2022-12-05T13:55:16.923Z,42.6
2022-12-05T14:00:17.114Z,42.8
2022-12-05T14:05:17.080Z,43.0
2022-12-05T14:10:17.018Z,43.3
2022-12-05T14:15:17.161Z,43.4
2022-12-05T14:20:17.098Z,43.7
2022-12-05T14:25:17.139Z,43.9
2022-12-05T14:30:17.123Z,44.0
2022-12-05T14:35:17.098Z,44.0
2022-12-05T14:40:17.264Z,43.9
2022-12-05T14:45:17.117Z,44.1
2022-12-05T14:50:17.217Z,44.4
2022-12-05T14:55:20.791Z,44.7
2022-12-05T15:00:17.128Z,44.6
2022-12-05T15:05:17.445Z,44.5
2022-12-05T15:10:17.183Z,44.8
2022-12-05T15:15:17.289Z,44.8
2022-12-05T15:20:17.160Z,44.9
2022-12-05T15:25:17.248Z,45.1
2022-12-05T15:30:17.347Z,45.1
2022-12-05T15:35:17.445Z,45.0
2022-12-05T15:40:17.277Z,45.1
2022-12-05T15:45:17.353Z,45.2
2022-12-05T15:50:17.380Z,45.3
2022-12-05T15:55:20.481Z,45.5
2022-12-05T16:00:17.415Z,45.5
2022-12-05T16:05:17.315Z,45.4
2022-12-05T16:10:17.417Z,45.5
2022-12-05T16:15:17.389Z,45.7
2022-12-05T16:20:17.393Z,45.8
2022-12-05T16:25:15.507Z,46.0
2022-12-05T16:30:17.470Z,46.1
2022-12-05T16:35:15.411Z,46.0
2022-12-05T16:40:15.528Z,46.1
2022-12-05T16:45:15.561Z,46.0
2022-12-05T16:50:15.550Z,46.0
2022-12-05T16:55:15.373Z,46.2
2022-12-05T17:00:15.551Z,46.4
2022-12-05T17:05:15.542Z,46.5
2022-12-05T17:10:15.563Z,46.6
2022-12-05T17:15:15.599Z,46.6
2022-12-05T17:20:15.583Z,46.7
2022-12-05T17:25:15.473Z,46.5
2022-12-05T17:30:15.677Z,46.7
2022-12-05T17:35:15.512Z,47.0
2022-12-05T17:40:15.494Z,46.9
2022-12-05T17:45:15.543Z,46.9
2022-12-05T17:50:15.752Z,47.1
2022-12-05T17:55:15.539Z,47.0
2022-12-05T18:00:15.697Z,47.0
2022-12-05T18:05:15.572Z,46.9
2022-12-05T18:10:15.602Z,47.1
2022-12-05T18:15:15.599Z,47.3
2022-12-05T18:20:15.713Z,47.4
2022-12-05T18:25:15.609Z,47.4
2022-12-05T18:30:15.595Z,47.3
2022-12-05T18:35:15.640Z,47.6
2022-12-05T18:40:15.827Z,47.8
2022-12-05T18:45:15.703Z,47.7
2022-12-05T18:50:15.902Z,47.4
2022-12-05T18:55:17.638Z,47.4
2022-12-05T19:00:15.707Z,47.4
2022-12-05T19:05:15.788Z,47.5
2022-12-05T19:10:15.771Z,47.5
2022-12-05T19:15:15.692Z,47.6
2022-12-05T19:20:15.809Z,47.7
2022-12-05T19:25:15.755Z,47.8
2022-12-05T19:30:15.711Z,48.0
2022-12-05T19:35:15.713Z,48.1
2022-12-05T19:40:15.814Z,48.1
2022-12-05T19:45:18.043Z,48.0
2022-12-05T19:50:15.794Z,47.8
2022-12-05T19:55:15.909Z,47.7
2022-12-05T20:00:16.048Z,47.5
2022-12-05T20:05:15.876Z,47.4
2022-12-05T20:10:15.837Z,47.4
2022-12-05T20:15:15.955Z,47.3
2022-12-05T20:20:15.908Z,47.2
2022-12-05T20:25:15.897Z,47.1
2022-12-05T20:30:16.034Z,47.0
2022-12-05T20:35:19.706Z,46.9
2022-12-05T20:40:15.912Z,46.8
2022-12-05T20:45:15.932Z,46.6
2022-12-05T20:50:15.938Z,46.5
2022-12-05T20:55:15.955Z,46.4
2022-12-05T21:00:15.965Z,46.2
2022-12-05T21:05:16.145Z,46.0
2022-12-05T21:10:15.953Z,45.8
2022-12-05T21:15:16.039Z,45.5
2022-12-05T21:20:15.981Z,45.4
2022-12-05T21:25:16.045Z,45.4
2022-12-05T21:30:16.045Z,45.2
2022-12-05T21:35:16.068Z,45.1
2022-12-05T21:40:16.229Z,44.9
2022-12-05T21:45:16.020Z,44.7
2022-12-05T21:50:16.267Z,44.5
2022-12-05T21:55:16.188Z,44.5
2022-12-05T22:00:16.042Z,44.5
2022-12-05T22:05:16.106Z,44.5
2022-12-05T22:10:16.128Z,44.4
2022-12-05T22:15:16.094Z,44.4
2022-12-05T22:20:16.093Z,44.4
2022-12-05T22:25:16.185Z,44.5
2022-12-05T22:30:16.233Z,44.5
2022-12-05T22:35:16.282Z,44.7
2022-12-05T22:40:16.176Z,44.7
2022-12-05T22:45:16.155Z,44.8
2022-12-05T22:50:16.653Z,44.7
2022-12-05T22:55:16.178Z,44.8
2022-12-05T23:00:16.217Z,44.8
2022-12-05T23:05:16.326Z,44.9
2022-12-05T23:10:16.141Z,44.8
2022-12-05T23:15:16.241Z,44.7
2022-12-05T23:20:16.303Z,44.6
2022-12-05T23:25:16.652Z,44.7
2022-12-05T23:30:16.262Z,44.9
2022-12-05T23:35:16.420Z,45.1
2022-12-05T23:40:16.352Z,45.0
2022-12-05T23:45:16.645Z,45.0
2022-12-05T23:50:16.330Z,45.0
2022-12-05T23:55:16.211Z,45.1
